Photometre #358[Standard_N] Brussels AOT

File : 20190927_358.hum

27/09/2019,06:32:58,TEMP=13.0,BA=5.68,STAT.A=Abs.,ExtBa=13.07
27/09/2019,06:37:06,TEMP=13.2,BA=5.68,STAT.A=Abs.,ExtBa=12.99
27/09/2019,06:41:56,TEMP=13.4,BA=5.64,STAT.A=Abs.,ExtBa=12.95
27/09/2019,06:47:43,TEMP=13.4,BA=5.64,STAT.A=Abs.,ExtBa=12.88
27/09/2019,06:54:41,TEMP=13.4,BA=5.64,STAT.A=Abs.,ExtBa=12.84
27/09/2019,07:03:20,TEMP=13.5,BA=5.64,STAT.A=Abs.,ExtBa=12.80
27/09/2019,07:14:19,TEMP=14.0,BA=5.64,STAT.B=Abs.,ExtBa=12.83
27/09/2019,07:19:37,TEMP=14.3,BA=5.64,STAT.A=Abs.,ExtBa=12.71
27/09/2019,07:25:33,TEMP=14.5,BA=5.48,STAT.A=Abs.,ExtBa=12.70
27/09/2019,07:32:18,TEMP=14.6,BA=5.64,STAT.A=Abs.,ExtBa=12.66
27/09/2019,07:40:03,TEMP=14.6,BA=5.64,STAT.A=Abs.,ExtBa=12.64
27/09/2019,07:48:59,TEMP=14.8,BA=5.52,STAT.C=Abs.,ExtBa=12.69
27/09/2019,07:59:33,TEMP=15.6,BA=5.44,STAT.A=Abs.,ExtBa=12.57
27/09/2019,08:01:06,TEMP=15.8,BA=5.48,STAT.b=Abs.
27/09/2019,08:12:09,TEMP=16.3,BA=5.64,STAT.A=Abs.,ExtBa=12.74
27/09/2019,08:27:40,TEMP=16.9,BA=5.64,STAT.A=Abs.,ExtBa=12.82
27/09/2019,08:34:18,TEMP=17.1,BA=5.64,STAT.F,ExtBa=12.79
27/09/2019,08:49:15,TEMP=18.1,BA=5.44,STAT.D=Abs.,ExtBa=12.70
27/09/2019,09:04:17,TEMP=18.0,BA=5.64,STAT.D=Abs.,ExtBa=12.81
27/09/2019,09:19:16,TEMP=17.1,BA=5.64,STAT.D=Abs.,ExtBa=12.85
27/09/2019,09:34:19,TEMP=17.6,BA=5.64,STAT.F,ExtBa=12.88
27/09/2019,09:49:16,TEMP=19.0,BA=5.48,STAT.D=Abs.,ExtBa=12.89
27/09/2019,10:04:17,TEMP=20.1,BA=5.64,STAT.D=Abs.,ExtBa=12.92
27/09/2019,10:19:17,TEMP=21.6,BA=5.64,STAT.D=Abs.,ExtBa=12.95
27/09/2019,10:34:19,TEMP=22.1,BA=5.64,STAT.F,ExtBa=12.96
27/09/2019,10:49:16,TEMP=21.8,BA=5.44,STAT.D=Abs.,ExtBa=12.68
27/09/2019,11:04:11,TEMP=21.9,BA=5.64,STAT.b=Abs.
27/09/2019,11:19:18,TEMP=21.0,BA=5.64,STAT.D=Abs.,ExtBa=12.91
27/09/2019,11:34:20,TEMP=21.3,BA=5.64,STAT.F,ExtBa=12.93
27/09/2019,11:49:19,TEMP=21.1,BA=5.60,STAT.D=Abs.,ExtBa=12.93
27/09/2019,12:04:17,TEMP=20.8,BA=5.60,STAT.D=Abs.,ExtBa=12.95
27/09/2019,12:19:18,TEMP=19.9,BA=5.60,STAT.D=Abs.,ExtBa=12.97
27/09/2019,12:34:19,TEMP=19.8,BA=5.60,STAT.F,ExtBa=12.96
27/09/2019,12:49:17,TEMP=20.8,BA=5.44,STAT.D=Abs.,ExtBa=12.75
27/09/2019,13:04:17,TEMP=22.6,BA=5.60,STAT.D=Abs.,ExtBa=12.85
27/09/2019,13:19:17,TEMP=20.5,BA=5.60,STAT.D=Abs.,ExtBa=12.91
27/09/2019,13:34:19,TEMP=21.2,BA=5.60,STAT.F,ExtBa=12.93
27/09/2019,13:49:19,TEMP=21.5,BA=5.44,STAT.D=Abs.,ExtBa=12.75
27/09/2019,14:04:17,TEMP=22.8,BA=5.60,STAT.D=Abs.,ExtBa=12.85
27/09/2019,14:19:17,TEMP=22.3,BA=5.60,STAT.D=Abs.,ExtBa=12.91
27/09/2019,14:34:18,TEMP=21.9,BA=5.60,STAT.F,ExtBa=12.93
27/09/2019,14:42:23,TEMP=21.8,BA=5.44,STAT.A=Abs.,ExtBa=12.61
27/09/2019,14:56:27,TEMP=19.6,BA=5.60,STAT.A=Abs.,ExtBa=12.82
27/09/2019,15:09:03,TEMP=20.4,BA=5.60,STAT.A=Abs.,ExtBa=12.86
27/09/2019,15:19:36,TEMP=21.6,BA=5.44,STAT.C=Abs.,ExtBa=12.87
27/09/2019,15:28:33,TEMP=21.1,BA=5.44,STAT.A=Abs.,ExtBa=12.64
27/09/2019,15:36:17,TEMP=19.8,BA=5.44,STAT.A=Abs.,ExtBa=12.75
27/09/2019,15:43:02,TEMP=19.1,BA=5.60,STAT.A=Abs.,ExtBa=12.78
27/09/2019,15:48:59,TEMP=18.6,BA=5.60,STAT.A=Abs.,ExtBa=12.79
27/09/2019,15:54:16,TEMP=18.4,BA=5.44,STAT.B=Abs.,ExtBa=12.78
27/09/2019,16:05:16,TEMP=17.8,BA=5.60,STAT.A=Abs.,ExtBa=12.84
27/09/2019,16:13:32,TEMP=17.9,BA=5.60,STAT.h
27/09/2019,16:20:31,TEMP=17.9,BA=5.64,STAT.h
27/09/2019,16:26:17,TEMP=17.9,BA=5.64,STAT.h
27/09/2019,16:31:28,TEMP=15.5,BA=5.64,STAT.A=Abs.,ExtBa=12.95
27/09/2019,16:35:36,TEMP=15.5,BA=5.64,STAT.A=Abs.,ExtBa=12.91